MT WASHINGTON (MTW)

Elevation: 920' · LOS ANGELES R basin · Operator: Los Angeles County Fire Dept

Query executed Sunday at 23:51:39   clock

Provisional data, subject to change.
Select a sensor type for a plot of data.

Earlier

Date   /   Time   RAIN     TEMP     REL HUM     BAR PRE     FUEL MS     FUEL TP     WIND SP     WIND DR     PEAK WS     PEAK WD     SOLAR R     BAT VOL    
(PDT)INCHES   DEG F   %   INCHES   %   DEG F   MPH   DEG   MPH   DEG   W/M^2   VOLTS  
05/29/2016 00:00 3.69 57 85 -- 14 58 -- -- -- -- 0.00 12.4
05/29/2016 01:00 3.69 57 87 -- 15 57 -- -- -- -- 0.00 12.4
05/29/2016 02:00 3.69 57 88 -- 15 57 -- -- -- -- 0.00 12.4
05/29/2016 03:00 3.69 57 87 -- 15 58 -- -- -- -- 0.00 12.4
05/29/2016 04:00 3.69 57 87 -- 15 58 -- -- -- -- 0.00 12.4
05/29/2016 05:00 3.69 57 85 -- 15 58 -- -- -- -- 0.00 12.3
05/29/2016 06:00 3.69 58 84 -- 15 58 -- -- -- -- 11.00 12.3
05/29/2016 07:00 3.69 59 83 -- 15 59 -- -- -- -- 37.00 12.4
05/29/2016 08:00 3.69 59 80 -- 15 61 -- -- -- -- 84.00 13.1
05/29/2016 09:00 3.69 61 74 -- 14 64 -- -- -- -- 149.00 13.2
05/29/2016 10:00 3.69 63 70 -- 14 66 -- -- -- -- 165.00 13.6
05/29/2016 11:00 3.69 64 65 -- 13 68 -- -- -- -- 213.00 13.7
05/29/2016 12:00 3.69 66 59 -- 12 72 -- -- -- -- 312.00 13.7
05/29/2016 13:00 3.69 68 54 -- 11 76 -- -- -- -- 455.00 13.6
05/29/2016 14:00 3.69 73 44 -- 11 82 -- -- -- -- 695.00 13.6
05/29/2016 15:00 3.69 71 49 -- 10 77 -- -- -- -- 611.00 13.6
05/29/2016 16:00 3.69 69 54 -- 10 70 -- -- -- -- 308.00 13.6
05/29/2016 17:00 3.69 65 60 -- 11 65 -- -- -- -- 170.00 13.4
05/29/2016 18:00 3.69 62 66 -- 11 63 -- -- -- -- 45.00 12.8
05/29/2016 19:00 3.69 60 71 -- 12 59 -- -- -- -- 19.00 12.5
05/29/2016 20:00 3.69 58 75 -- 12 57 -- -- -- -- 0.00 12.5
05/29/2016 21:00 3.69 57 77 -- 13 56 -- -- -- -- 0.00 12.5
05/29/2016 22:00 3.69 57 78 -- 14 55 -- -- -- -- 0.00 12.5
05/29/2016 23:00 -- -- -- -- -- -- -- -- -- -- -- --

Later | Latest

Warning! This data is preliminary and subject to revision.

Show MTW Map | 24 Hours MTW Data | Plot all MTW Sensors | Daily MTW Data | MTW Info